SKW5474 KORD-KMBS
Flight info
| Callsign | SKW5474 |
|---|---|
| Flight time | 0h 39m |
| Altitude | 25000 |
| Route | RAYNR BRTMN TAAYZ MKG MBS |
| Aircraft | CRJ7/M-SDFGIRWY/S |
Departure
| Time | 2026-04-26 16:03 |
|---|---|
| Airport | Chicago O'Hare International Airport (KORD) |
Arrival
| Time | 2026-04-26 16:42 |
|---|---|
| Airport | MBS International Airport (KMBS) |
| Time | Latitude | Longitude | Altitude | Speed | Heading |
|---|---|---|---|---|---|
| 2026-04-26 15:17 | 41.97558 | -87.90695 | 667 ft | 0 kts | 159° |
| 2026-04-26 15:44 | 41.97572 | -87.90702 | 667 ft | 4 kts | 168° |
| 2026-04-26 15:45 | 41.97619 | -87.90686 | 667 ft | 4 kts | 239° |
| 2026-04-26 15:45 | 41.97622 | -87.90680 | 667 ft | 4 kts | 250° |
| 2026-04-26 15:46 | 41.97605 | -87.90742 | 667 ft | 0 kts | 250° |
| 2026-04-26 15:54 | 41.97602 | -87.90752 | 667 ft | 3 kts | 250° |
| 2026-04-26 15:54 | 41.97600 | -87.90792 | 667 ft | 5 kts | 288° |
| 2026-04-26 15:54 | 41.97627 | -87.90844 | 667 ft | 8 kts | 310° |
| 2026-04-26 15:54 | 41.97665 | -87.90906 | 667 ft | 9 kts | 311° |
| 2026-04-26 15:55 | 41.97727 | -87.90927 | 667 ft | 10 kts | 7° |
| 2026-04-26 15:55 | 41.97802 | -87.90910 | 667 ft | 12 kts | 9° |
| 2026-04-26 15:55 | 41.97886 | -87.90892 | 667 ft | 13 kts | 10° |
| 2026-04-26 15:55 | 41.97975 | -87.90872 | 667 ft | 13 kts | 9° |
| 2026-04-26 15:56 | 41.98069 | -87.90851 | 667 ft | 14 kts | 5° |
| 2026-04-26 15:56 | 41.98170 | -87.90859 | 667 ft | 15 kts | 355° |
| 2026-04-26 15:56 | 41.98266 | -87.90869 | 667 ft | 13 kts | 337° |
| 2026-04-26 15:56 | 41.98289 | -87.90973 | 667 ft | 13 kts | 268° |
| 2026-04-26 15:57 | 41.98288 | -87.91097 | 667 ft | 14 kts | 270° |
| 2026-04-26 15:57 | 41.98288 | -87.91222 | 669 ft | 13 kts | 270° |
| 2026-04-26 15:57 | 41.98287 | -87.91339 | 670 ft | 13 kts | 270° |
| 2026-04-26 15:57 | 41.98287 | -87.91426 | 669 ft | 14 kts | 270° |
| 2026-04-26 15:58 | 41.98287 | -87.91617 | 668 ft | 16 kts | 270° |
| 2026-04-26 15:58 | 41.98287 | -87.91771 | 668 ft | 17 kts | 270° |
| 2026-04-26 15:58 | 41.98287 | -87.91933 | 667 ft | 18 kts | 270° |
| 2026-04-26 15:58 | 41.98287 | -87.92108 | 666 ft | 19 kts | 270° |
| 2026-04-26 15:59 | 41.98287 | -87.92290 | 666 ft | 18 kts | 270° |
| 2026-04-26 15:59 | 41.98282 | -87.92451 | 666 ft | 17 kts | 267° |
| 2026-04-26 15:59 | 41.98280 | -87.92585 | 666 ft | 11 kts | 270° |
| 2026-04-26 15:59 | 41.98294 | -87.92633 | 666 ft | 0 kts | 319° |
| 2026-04-26 16:01 | 41.98299 | -87.92638 | 666 ft | 2 kts | 326° |
| 2026-04-26 16:01 | 41.98327 | -87.92647 | 666 ft | 7 kts | 0° |
| 2026-04-26 16:01 | 41.98379 | -87.92630 | 666 ft | 8 kts | 53° |
| 2026-04-26 16:02 | 41.98389 | -87.92542 | 665 ft | 13 kts | 89° |
| 2026-04-26 16:02 | 41.98390 | -87.92323 | 664 ft | 45 kts | 90° |
| 2026-04-26 16:02 | 41.98389 | -87.91647 | 670 ft | 98 kts | 89° |
| 2026-04-26 16:02 | 41.98389 | -87.90951 | 666 ft | 127 kts | 90° |
| 2026-04-26 16:03 | 41.98386 | -87.89169 | 883 ft | 152 kts | 90° |
| 2026-04-26 16:03 | 41.98407 | -87.87767 | 1365 ft | 154 kts | 74° |
| 2026-04-26 16:03 | 41.99161 | -87.86780 | 1677 ft | 163 kts | 13° |
| 2026-04-26 16:03 | 42.00293 | -87.86822 | 2167 ft | 164 kts | 358° |
| 2026-04-26 16:04 | 42.01433 | -87.86957 | 2724 ft | 164 kts | 358° |
| 2026-04-26 16:04 | 42.02580 | -87.87123 | 3243 ft | 167 kts | 357° |
| 2026-04-26 16:04 | 42.03748 | -87.87324 | 3727 ft | 171 kts | 356° |
| 2026-04-26 16:04 | 42.04991 | -87.87529 | 4038 ft | 188 kts | 356° |
| 2026-04-26 16:05 | 42.06369 | -87.87743 | 4293 ft | 214 kts | 356° |
| 2026-04-26 16:05 | 42.07948 | -87.87982 | 4612 ft | 242 kts | 356° |
| 2026-04-26 16:05 | 42.09712 | -87.88244 | 4685 ft | 263 kts | 356° |
| 2026-04-26 16:05 | 42.11575 | -87.88515 | 4774 ft | 275 kts | 356° |
| 2026-04-26 16:06 | 42.13489 | -87.88792 | 5456 ft | 277 kts | 355° |
| 2026-04-26 16:06 | 42.15416 | -87.88858 | 6276 ft | 279 kts | 12° |
| 2026-04-26 16:06 | 42.17309 | -87.88228 | 7087 ft | 283 kts | 18° |
| 2026-04-26 16:06 | 42.19221 | -87.87513 | 7869 ft | 287 kts | 18° |
| 2026-04-26 16:07 | 42.21159 | -87.86756 | 8615 ft | 293 kts | 18° |
| 2026-04-26 16:07 | 42.23124 | -87.85978 | 9413 ft | 296 kts | 19° |
| 2026-04-26 16:07 | 42.25115 | -87.85176 | 10185 ft | 301 kts | 18° |
| 2026-04-26 16:07 | 42.27196 | -87.84329 | 10515 ft | 323 kts | 18° |
| 2026-04-26 16:08 | 42.29389 | -87.83419 | 10875 ft | 341 kts | 18° |
| 2026-04-26 16:08 | 42.30945 | -87.82773 | 11170 ft | 350 kts | 17° |
| 2026-04-26 16:08 | 42.34152 | -87.81986 | 12077 ft | 357 kts | 5° |
| 2026-04-26 16:08 | 42.36641 | -87.81720 | 12789 ft | 360 kts | 3° |
| 2026-04-26 16:09 | 42.39160 | -87.81489 | 13470 ft | 364 kts | 3° |
| 2026-04-26 16:09 | 42.41700 | -87.81245 | 14137 ft | 368 kts | 3° |
| 2026-04-26 16:09 | 42.44267 | -87.80963 | 14738 ft | 372 kts | 4° |
| 2026-04-26 16:09 | 42.46875 | -87.80645 | 15198 ft | 380 kts | 4° |
| 2026-04-26 16:10 | 42.49529 | -87.80510 | 15795 ft | 382 kts | 358° |
| 2026-04-26 16:10 | 42.52175 | -87.80675 | 16487 ft | 380 kts | 354° |
| 2026-04-26 16:10 | 42.54820 | -87.80936 | 17044 ft | 383 kts | 354° |
| 2026-04-26 16:10 | 42.57492 | -87.81188 | 17585 ft | 385 kts | 353° |
| 2026-04-26 16:11 | 42.60178 | -87.81397 | 18093 ft | 389 kts | 354° |
| 2026-04-26 16:11 | 42.62892 | -87.81578 | 18598 ft | 391 kts | 354° |
| 2026-04-26 16:11 | 42.65585 | -87.81750 | 19094 ft | 394 kts | 354° |
| 2026-04-26 16:11 | 42.68332 | -87.81620 | 19547 ft | 400 kts | 10° |
| 2026-04-26 16:12 | 42.70895 | -87.80106 | 19976 ft | 408 kts | 34° |
| 2026-04-26 16:12 | 42.72934 | -87.77345 | 20423 ft | 412 kts | 52° |
| 2026-04-26 16:12 | 42.75781 | -87.70619 | 21247 ft | 416 kts | 71° |
| 2026-04-26 16:13 | 42.76669 | -87.66857 | 21631 ft | 419 kts | 74° |
| 2026-04-26 16:13 | 42.77508 | -87.63038 | 22009 ft | 422 kts | 74° |
| 2026-04-26 16:13 | 42.78398 | -87.59205 | 22388 ft | 425 kts | 72° |
| 2026-04-26 16:13 | 42.79369 | -87.55393 | 22757 ft | 427 kts | 71° |
| 2026-04-26 16:14 | 42.80365 | -87.51574 | 23115 ft | 429 kts | 71° |
| 2026-04-26 16:14 | 42.81348 | -87.47716 | 23432 ft | 432 kts | 71° |
| 2026-04-26 16:14 | 42.83334 | -87.39916 | 24080 ft | 438 kts | 71° |
| 2026-04-26 16:15 | 42.84317 | -87.36043 | 24390 ft | 440 kts | 71° |
| 2026-04-26 16:15 | 42.85331 | -87.32048 | 24704 ft | 442 kts | 71° |
| 2026-04-26 16:15 | 42.86334 | -87.28074 | 24968 ft | 445 kts | 71° |
| 2026-04-26 16:16 | 42.88367 | -87.20025 | 25151 ft | 459 kts | 71° |
| 2026-04-26 16:16 | 42.89415 | -87.15872 | 25178 ft | 467 kts | 71° |
| 2026-04-26 16:16 | 42.90474 | -87.11646 | 25191 ft | 475 kts | 70° |
| 2026-04-26 16:16 | 42.91553 | -87.07347 | 25200 ft | 483 kts | 71° |
| 2026-04-26 16:17 | 42.92646 | -87.02973 | 25207 ft | 490 kts | 71° |
| 2026-04-26 16:17 | 42.93746 | -86.98569 | 25208 ft | 489 kts | 70° |
| 2026-04-26 16:17 | 42.94841 | -86.94184 | 25207 ft | 489 kts | 71° |
| 2026-04-26 16:17 | 42.95941 | -86.89775 | 25206 ft | 490 kts | 71° |
| 2026-04-26 16:18 | 42.97035 | -86.85363 | 25204 ft | 490 kts | 71° |
| 2026-04-26 16:18 | 42.99220 | -86.76532 | 25202 ft | 491 kts | 71° |
| 2026-04-26 16:19 | 43.01392 | -86.67737 | 25201 ft | 492 kts | 71° |
| 2026-04-26 16:19 | 43.02480 | -86.63309 | 25201 ft | 492 kts | 71° |
| 2026-04-26 16:19 | 43.04303 | -86.55880 | 25200 ft | 492 kts | 71° |
| 2026-04-26 16:20 | 43.05742 | -86.50011 | 25200 ft | 491 kts | 71° |
| 2026-04-26 16:20 | 43.07902 | -86.41145 | 25199 ft | 490 kts | 71° |
| 2026-04-26 16:20 | 43.08978 | -86.36718 | 25199 ft | 489 kts | 71° |
| 2026-04-26 16:21 | 43.10050 | -86.32313 | 25199 ft | 489 kts | 71° |
| 2026-04-26 16:21 | 43.11120 | -86.27894 | 25198 ft | 488 kts | 71° |
| 2026-04-26 16:21 | 43.12171 | -86.23538 | 25199 ft | 488 kts | 71° |
| 2026-04-26 16:21 | 43.13241 | -86.19128 | 25199 ft | 488 kts | 71° |
| 2026-04-26 16:22 | 43.14305 | -86.14712 | 25200 ft | 488 kts | 71° |
| 2026-04-26 16:22 | 43.15363 | -86.10294 | 25200 ft | 488 kts | 71° |
| 2026-04-26 16:22 | 43.16431 | -86.05815 | 25200 ft | 488 kts | 73° |
| 2026-04-26 16:22 | 43.17225 | -86.01356 | 25198 ft | 488 kts | 78° |
| 2026-04-26 16:23 | 43.17771 | -85.96768 | 25194 ft | 488 kts | 83° |
| 2026-04-26 16:23 | 43.18155 | -85.92154 | 25191 ft | 486 kts | 84° |
| 2026-04-26 16:23 | 43.18518 | -85.87581 | 24620 ft | 480 kts | 83° |
| 2026-04-26 16:23 | 43.18915 | -85.83079 | 23917 ft | 471 kts | 82° |
| 2026-04-26 16:24 | 43.19204 | -85.80099 | 23449 ft | 465 kts | 83° |
| 2026-04-26 16:24 | 43.19763 | -85.74273 | 22514 ft | 465 kts | 82° |
| 2026-04-26 16:24 | 43.20048 | -85.71303 | 22042 ft | 464 kts | 83° |
| 2026-04-26 16:24 | 43.20464 | -85.66920 | 21345 ft | 461 kts | 83° |
| 2026-04-26 16:25 | 43.20870 | -85.62643 | 20662 ft | 457 kts | 83° |
| 2026-04-26 16:25 | 43.21273 | -85.58352 | 19958 ft | 447 kts | 83° |
| 2026-04-26 16:25 | 43.21672 | -85.54158 | 19259 ft | 439 kts | 83° |
| 2026-04-26 16:25 | 43.22056 | -85.50038 | 18550 ft | 432 kts | 83° |
| 2026-04-26 16:26 | 43.22432 | -85.45981 | 17855 ft | 426 kts | 83° |
| 2026-04-26 16:26 | 43.22803 | -85.41979 | 17153 ft | 420 kts | 83° |
| 2026-04-26 16:26 | 43.23172 | -85.38031 | 16508 ft | 413 kts | 83° |
| 2026-04-26 16:26 | 43.23527 | -85.34164 | 15957 ft | 404 kts | 83° |
| 2026-04-26 16:27 | 43.23875 | -85.30375 | 15404 ft | 397 kts | 83° |
| 2026-04-26 16:27 | 43.24216 | -85.26652 | 14849 ft | 390 kts | 83° |
| 2026-04-26 16:27 | 43.24551 | -85.22993 | 14304 ft | 384 kts | 83° |
| 2026-04-26 16:27 | 43.24879 | -85.19389 | 13766 ft | 377 kts | 83° |
| 2026-04-26 16:28 | 43.25202 | -85.15840 | 13264 ft | 371 kts | 83° |
| 2026-04-26 16:28 | 43.25516 | -85.12351 | 12750 ft | 365 kts | 83° |
| 2026-04-26 16:28 | 43.25819 | -85.08970 | 12283 ft | 358 kts | 82° |
| 2026-04-26 16:28 | 43.26120 | -85.05610 | 11830 ft | 352 kts | 82° |
| 2026-04-26 16:29 | 43.26420 | -85.02309 | 11377 ft | 346 kts | 83° |
| 2026-04-26 16:29 | 43.26704 | -84.99079 | 10909 ft | 332 kts | 83° |
| 2026-04-26 16:29 | 43.26976 | -84.96011 | 10495 ft | 316 kts | 83° |
| 2026-04-26 16:29 | 43.27236 | -84.93078 | 10102 ft | 303 kts | 83° |
| 2026-04-26 16:30 | 43.27483 | -84.90260 | 9714 ft | 292 kts | 83° |
| 2026-04-26 16:30 | 43.27724 | -84.87540 | 9326 ft | 283 kts | 83° |
| 2026-04-26 16:30 | 43.27958 | -84.84890 | 8935 ft | 275 kts | 83° |
| 2026-04-26 16:30 | 43.28184 | -84.82323 | 8560 ft | 267 kts | 83° |
| 2026-04-26 16:31 | 43.28412 | -84.79835 | 8244 ft | 258 kts | 83° |
| 2026-04-26 16:31 | 43.28624 | -84.77427 | 7932 ft | 251 kts | 83° |
| 2026-04-26 16:31 | 43.28825 | -84.75086 | 7621 ft | 244 kts | 83° |
| 2026-04-26 16:31 | 43.29024 | -84.72786 | 7336 ft | 243 kts | 83° |
| 2026-04-26 16:32 | 43.29221 | -84.70498 | 7088 ft | 245 kts | 83° |
| 2026-04-26 16:32 | 43.29357 | -84.68934 | 6918 ft | 244 kts | 83° |
| 2026-04-26 16:32 | 43.29618 | -84.65886 | 6594 ft | 242 kts | 83° |
| 2026-04-26 16:32 | 43.29816 | -84.63599 | 6346 ft | 240 kts | 83° |
| 2026-04-26 16:33 | 43.30009 | -84.61334 | 6091 ft | 237 kts | 83° |
| 2026-04-26 16:33 | 43.30199 | -84.59091 | 5849 ft | 236 kts | 83° |
| 2026-04-26 16:33 | 43.30393 | -84.56863 | 5600 ft | 234 kts | 83° |
| 2026-04-26 16:33 | 43.30580 | -84.54656 | 5350 ft | 232 kts | 83° |
| 2026-04-26 16:34 | 43.30761 | -84.52465 | 5103 ft | 230 kts | 83° |
| 2026-04-26 16:34 | 43.30950 | -84.50290 | 4831 ft | 229 kts | 83° |
| 2026-04-26 16:34 | 43.31134 | -84.48130 | 4589 ft | 226 kts | 83° |
| 2026-04-26 16:34 | 43.31314 | -84.45996 | 4342 ft | 224 kts | 83° |
| 2026-04-26 16:35 | 43.31489 | -84.43876 | 4094 ft | 222 kts | 83° |
| 2026-04-26 16:35 | 43.31680 | -84.41760 | 3786 ft | 224 kts | 83° |
| 2026-04-26 16:35 | 43.31865 | -84.39646 | 3539 ft | 222 kts | 83° |
| 2026-04-26 16:35 | 43.32273 | -84.37638 | 3308 ft | 218 kts | 57° |
| 2026-04-26 16:36 | 43.33226 | -84.36049 | 3111 ft | 213 kts | 47° |
| 2026-04-26 16:36 | 43.34247 | -84.34606 | 2951 ft | 208 kts | 45° |
| 2026-04-26 16:36 | 43.35278 | -84.33209 | 2825 ft | 210 kts | 46° |
| 2026-04-26 16:36 | 43.36317 | -84.31795 | 2673 ft | 215 kts | 45° |
| 2026-04-26 16:37 | 43.37391 | -84.30352 | 2572 ft | 215 kts | 45° |
| 2026-04-26 16:37 | 43.38434 | -84.28932 | 2489 ft | 205 kts | 46° |
| 2026-04-26 16:37 | 43.39401 | -84.27591 | 2477 ft | 194 kts | 47° |
| 2026-04-26 16:37 | 43.40336 | -84.26270 | 2457 ft | 192 kts | 47° |
| 2026-04-26 16:38 | 43.41265 | -84.24970 | 2440 ft | 188 kts | 46° |
| 2026-04-26 16:38 | 43.42177 | -84.23694 | 2429 ft | 185 kts | 47° |
| 2026-04-26 16:38 | 43.43062 | -84.22417 | 2435 ft | 184 kts | 47° |
| 2026-04-26 16:38 | 43.43939 | -84.21195 | 2439 ft | 173 kts | 46° |
| 2026-04-26 16:39 | 43.44766 | -84.20045 | 2449 ft | 166 kts | 46° |
| 2026-04-26 16:39 | 43.45545 | -84.18924 | 2434 ft | 158 kts | 47° |
| 2026-04-26 16:39 | 43.46290 | -84.17893 | 2344 ft | 152 kts | 46° |
| 2026-04-26 16:39 | 43.47022 | -84.16896 | 2169 ft | 140 kts | 45° |
| 2026-04-26 16:40 | 43.47681 | -84.15970 | 1957 ft | 134 kts | 48° |
| 2026-04-26 16:40 | 43.48323 | -84.15048 | 1805 ft | 133 kts | 48° |
| 2026-04-26 16:40 | 43.48960 | -84.14129 | 1643 ft | 132 kts | 47° |
| 2026-04-26 16:40 | 43.49607 | -84.13223 | 1501 ft | 132 kts | 47° |
| 2026-04-26 16:41 | 43.50257 | -84.12310 | 1293 ft | 134 kts | 47° |
| 2026-04-26 16:41 | 43.50908 | -84.11401 | 1114 ft | 131 kts | 47° |
| 2026-04-26 16:41 | 43.51553 | -84.10506 | 997 ft | 134 kts | 47° |
| 2026-04-26 16:41 | 43.52219 | -84.09570 | 829 ft | 137 kts | 47° |
| 2026-04-26 16:42 | 43.52874 | -84.08653 | 683 ft | 125 kts | 46° |
| 2026-04-26 16:42 | 43.53359 | -84.07974 | 672 ft | 68 kts | 45° |
| 2026-04-26 16:42 | 43.53627 | -84.07601 | 670 ft | 45 kts | 44° |
| 2026-04-26 16:42 | 43.53823 | -84.07326 | 666 ft | 34 kts | 45° |
| 2026-04-26 16:43 | 43.53928 | -84.07194 | 666 ft | 11 kts | 3° |
| 2026-04-26 16:43 | 43.53983 | -84.07258 | 666 ft | 11 kts | 313° |
| 2026-04-26 16:43 | 43.54000 | -84.07351 | 666 ft | 11 kts | 241° |
| 2026-04-26 16:43 | 43.53949 | -84.07426 | 667 ft | 11 kts | 225° |
| 2026-04-26 16:44 | 43.53893 | -84.07505 | 667 ft | 12 kts | 226° |
| 2026-04-26 16:44 | 43.53834 | -84.07586 | 668 ft | 12 kts | 225° |
| 2026-04-26 16:44 | 43.53773 | -84.07672 | 668 ft | 13 kts | 226° |
| 2026-04-26 16:44 | 43.53709 | -84.07763 | 669 ft | 13 kts | 226° |
| 2026-04-26 16:45 | 43.53645 | -84.07857 | 670 ft | 11 kts | 234° |
| 2026-04-26 16:45 | 43.53660 | -84.07934 | 670 ft | 9 kts | 309° |
| 2026-04-26 16:45 | 43.53677 | -84.08021 | 670 ft | 10 kts | 274° |
| 2026-04-26 16:45 | 43.53727 | -84.08072 | 670 ft | 10 kts | 358° |
| 2026-04-26 16:46 | 43.53782 | -84.08079 | 669 ft | 3 kts | 320° |
| 2026-04-26 16:46 | 43.53787 | -84.08098 | 669 ft | 2 kts | 264° |
| 2026-04-26 16:46 | 43.53786 | -84.08119 | 669 ft | 2 kts | 279° |
| 2026-04-26 16:46 | 43.53790 | -84.08132 | 669 ft | 0 kts | 297° |
| 2026-04-26 16:47 | 43.53791 | -84.08135 | 669 ft | 0 kts | 297° |
| 2026-04-26 16:48 | 43.53796 | -84.08152 | 669 ft | 0 kts | 270° |